Time;durP1;ratioP1;P1;durP2;ratioP2;P2;SDS_P1;SDS_P2;PMS_P1;PMS_P2;Temp;Humidity;BMP_temperature;BMP_pressure;BME280_temperature;BME280_humidity;BME280_pressure;Samples;Min_cycle;Max_cycle;Signal;HPM_P1;HPM_P2
2023/05/09 00:00:41;;;;;;;46.47;23.38;;;;;;;;;;10019862;23;20335;-91
2023/05/09 00:04:51;;;;;;;43.70;23.85;;;;;;;;;;10020143;23;20360;-91
2023/05/09 00:08:54;;;;;;;42.53;22.63;;;;;;;;;;10020070;23;20031;-91
2023/05/09 00:12:59;;;;;;;44.05;23.13;;;;;;;;;;10045144;23;20031;-90
2023/05/09 00:17:02;;;;;;;46.65;24.27;;;;;;;;;;10044541;23;20022;-91
2023/05/09 00:21:05;;;;;;;45.75;24.30;;;;;;;;;;10019910;23;20654;-90
2023/05/09 00:25:10;;;;;;;48.85;27.17;;;;;;;;;;10044870;23;20474;-91
2023/05/09 00:29:15;;;;;;;44.05;24.60;;;;;;;;;;10044366;23;20022;-91
2023/05/09 00:33:18;;;;;;;44.90;25.73;;;;;;;;;;10044168;23;20106;-91
2023/05/09 00:37:20;;;;;;;44.78;23.52;;;;;;;;;;10044567;23;20498;-92
2023/05/09 00:41:23;;;;;;;45.45;23.30;;;;;;;;;;10066090;23;20049;-91
2023/05/09 00:45:28;;;;;;;44.40;24.90;;;;;;;;;;10076990;23;20030;-91
2023/05/09 00:49:33;;;;;;;43.38;23.17;;;;;;;;;;10082890;23;20018;-91
2023/05/09 00:53:36;;;;;;;42.03;24.02;;;;;;;;;;10034490;23;20359;-91
2023/05/09 00:57:42;;;;;;;44.13;24.65;;;;;;;;;;10044306;23;20106;-91
2023/05/09 01:02:01;;;;;;;41.40;22.23;;;;;;;;;;10059728;23;20030;-91
2023/05/09 01:06:14;;;;;;;39.40;22.92;;;;;;;;;;10042736;23;20347;-91
2023/05/09 01:10:24;;;;;;;46.78;24.30;;;;;;;;;;10018659;23;20046;-90
2023/05/09 01:14:37;;;;;;;42.13;23.13;;;;;;;;;;10059404;23;20021;-91
2023/05/09 01:18:47;;;;;;;40.47;23.02;;;;;;;;;;10018733;23;20106;-90
2023/05/09 01:23:00;;;;;;;47.47;24.08;;;;;;;;;;10059509;23;20447;-91
2023/05/09 01:27:29;;;;;;;45.90;24.13;;;;;;;;;;10059476;23;20046;-91
2023/05/09 01:31:38;;;;;;;46.58;23.73;;;;;;;;;;10018492;23;20482;-90
2023/05/09 01:35:44;;;;;;;46.92;24.20;;;;;;;;;;10059021;23;20022;-90
2023/05/09 01:39:49;;;;;;;43.83;23.50;;;;;;;;;;10043125;23;20109;-90
2023/05/09 01:43:55;;;;;;;43.42;23.58;;;;;;;;;;10043287;23;20034;-90
2023/05/09 01:48:03;;;;;;;40.92;23.00;;;;;;;;;;10058635;23;20018;-91
2023/05/09 01:52:09;;;;;;;44.67;23.77;;;;;;;;;;10059103;23;20102;-91
2023/05/09 01:56:13;;;;;;;40.58;22.73;;;;;;;;;;10058739;23;20395;-91
2023/05/09 02:00:24;;;;;;;41.40;24.38;;;;;;;;;;10017740;23;20481;-90
2023/05/09 02:04:29;;;;;;;42.45;23.80;;;;;;;;;;10042921;23;20029;-90
2023/05/09 02:08:33;;;;;;;36.88;21.85;;;;;;;;;;10058391;23;20018;-90
2023/05/09 02:12:36;;;;;;;42.33;23.35;;;;;;;;;;10042699;23;20058;-91
2023/05/09 02:16:39;;;;;;;40.80;22.85;;;;;;;;;;10042951;23;20332;-91
2023/05/09 02:20:43;;;;;;;41.65;23.17;;;;;;;;;;10044005;23;20027;-91
2023/05/09 02:24:46;;;;;;;41.45;22.38;;;;;;;;;;10045923;23;20352;-90
2023/05/09 02:28:50;;;;;;;38.17;22.20;;;;;;;;;;10045730;23;20523;-90
2023/05/09 02:32:57;;;;;;;41.42;21.25;;;;;;;;;;10020969;23;20058;-90
2023/05/09 02:37:02;;;;;;;38.03;21.05;;;;;;;;;;10045213;23;20023;-90
2023/05/09 02:41:05;;;;;;;35.78;21.33;;;;;;;;;;10045942;23;20033;-90
2023/05/09 02:45:10;;;;;;;41.50;21.58;;;;;;;;;;10045764;23;20018;-91
2023/05/09 02:49:15;;;;;;;37.55;21.73;;;;;;;;;;10045558;23;20078;-92
2023/05/09 02:53:20;;;;;;;39.42;20.98;;;;;;;;;;10020658;23;20099;-91
2023/05/09 02:57:23;;;;;;;35.53;19.75;;;;;;;;;;10045394;23;20067;-91
2023/05/09 03:01:26;;;;;;;38.28;21.73;;;;;;;;;;10020510;23;20078;-91
2023/05/09 03:05:29;;;;;;;45.33;26.58;;;;;;;;;;10045404;23;20030;-90
2023/05/09 03:09:36;;;;;;;41.50;22.58;;;;;;;;;;10020386;23;20322;-90
2023/05/09 03:13:39;;;;;;;35.83;21.85;;;;;;;;;;10061242;23;20023;-90
2023/05/09 03:17:42;;;;;;;39.60;24.40;;;;;;;;;;10045350;23;20452;-90
2023/05/09 03:21:45;;;;;;;59.33;38.10;;;;;;;;;;10044747;23;20071;-91
2023/05/09 03:25:49;;;;;;;37.97;22.85;;;;;;;;;;10044874;23;20022;-91
2023/05/09 03:29:55;;;;;;;37.60;18.90;;;;;;;;;;10044694;23;20053;-90
2023/05/09 03:33:57;;;;;;;32.28;19.52;;;;;;;;;;10059986;23;20019;-90
2023/05/09 03:38:00;;;;;;;40.35;25.15;;;;;;;;;;10043983;23;20027;-91
2023/05/09 03:42:08;;;;;;;31.40;19.38;;;;;;;;;;10044532;23;20029;-90
2023/05/09 03:46:13;;;;;;;27.60;16.60;;;;;;;;;;10057342;23;20046;-90
2023/05/09 03:50:16;;;;;;;24.90;16.77;;;;;;;;;;10017882;23;20027;-91
2023/05/09 03:54:20;;;;;;;26.83;16.25;;;;;;;;;;10043799;23;20023;-91
2023/05/09 03:58:26;;;;;;;24.60;15.85;;;;;;;;;;10042489;23;20139;-91
2023/05/09 04:02:29;;;;;;;25.13;15.40;;;;;;;;;;10058981;23;20355;-89
2023/05/09 04:06:35;;;;;;;30.23;17.85;;;;;;;;;;10043160;23;20457;-89
2023/05/09 04:10:37;;;;;;;27.60;16.88;;;;;;;;;;10057995;23;20329;-89
2023/05/09 04:14:43;;;;;;;34.85;18.92;;;;;;;;;;10017376;23;20023;-89
2023/05/09 04:18:46;;;;;;;46.95;28.13;;;;;;;;;;10039175;23;20106;-90
2023/05/09 04:22:49;;;;;;;43.30;27.73;;;;;;;;;;10043254;23;20110;-90
2023/05/09 04:26:51;;;;;;;42.60;27.20;;;;;;;;;;10043352;23;20026;-91
2023/05/09 04:30:56;;;;;;;29.45;19.70;;;;;;;;;;10042227;23;20019;-91
2023/05/09 04:34:59;;;;;;;26.00;16.48;;;;;;;;;;10042714;23;20106;-90
2023/05/09 04:39:03;;;;;;;36.03;19.58;;;;;;;;;;10043224;23;20063;-90
2023/05/09 04:43:06;;;;;;;22.92;14.05;;;;;;;;;;10042474;23;20050;-91
2023/05/09 04:47:11;;;;;;;17.88;9.57;;;;;;;;;;10050410;23;20018;-91
2023/05/09 04:51:14;;;;;;;16.05;9.48;;;;;;;;;;10072930;23;20042;-91
2023/05/09 04:55:17;;;;;;;12.57;7.75;;;;;;;;;;10075754;23;20030;-90
2023/05/09 04:59:21;;;;;;;14.70;7.57;;;;;;;;;;10070022;23;20030;-89
2023/05/09 05:03:26;;;;;;;14.38;8.15;;;;;;;;;;10019677;23;20102;-91
2023/05/09 05:07:29;;;;;;;10.73;6.53;;;;;;;;;;10043734;23;20481;-91
2023/05/09 05:11:31;;;;;;;9.82;5.88;;;;;;;;;;10043034;23;20025;-90
2023/05/09 05:15:36;;;;;;;8.05;4.25;;;;;;;;;;10042731;23;20031;-90
2023/05/09 05:19:40;;;;;;;5.85;3.53;;;;;;;;;;10038274;23;20058;-89
2023/05/09 05:23:44;;;;;;;6.32;3.63;;;;;;;;;;10058383;23;20019;-89
2023/05/09 05:27:47;;;;;;;7.57;3.53;;;;;;;;;;10042907;23;20073;-90
2023/05/09 05:31:50;;;;;;;10.52;5.55;;;;;;;;;;10043185;23;20095;-90
2023/05/09 05:35:54;;;;;;;6.15;4.50;;;;;;;;;;10043035;23;20027;-91
2023/05/09 05:39:57;;;;;;;6.07;2.95;;;;;;;;;;10043027;23;20047;-91
2023/05/09 05:44:00;;;;;;;4.70;2.63;;;;;;;;;;10042616;23;20023;-90
2023/05/09 05:48:03;;;;;;;4.53;2.78;;;;;;;;;;10042019;23;20106;-92
2023/05/09 05:52:08;;;;;;;5.40;2.90;;;;;;;;;;10038858;23;20154;-90
2023/05/09 05:56:10;;;;;;;3.80;2.80;;;;;;;;;;10043283;23;20030;-91
2023/05/09 06:00:15;;;;;;;5.20;2.88;;;;;;;;;;10043899;23;20023;-89
2023/05/09 06:04:18;;;;;;;6.85;3.75;;;;;;;;;;10045630;23;20023;-91
2023/05/09 06:08:22;;;;;;;6.55;3.55;;;;;;;;;;10046035;23;20431;-92
2023/05/09 06:12:25;;;;;;;5.88;3.17;;;;;;;;;;10020693;23;20027;-92
2023/05/09 06:16:28;;;;;;;4.85;2.70;;;;;;;;;;10046283;23;20043;-92
2023/05/09 06:20:31;;;;;;;5.40;4.00;;;;;;;;;;10046006;23;20042;-92
2023/05/09 06:24:36;;;;;;;6.93;5.00;;;;;;;;;;10045967;23;20050;-92
2023/05/09 06:28:39;;;;;;;8.07;5.00;;;;;;;;;;10045977;23;20480;-92
2023/05/09 06:32:41;;;;;;;7.63;3.30;;;;;;;;;;10045466;23;20038;-91
2023/05/09 06:36:44;;;;;;;5.93;2.70;;;;;;;;;;10044494;23;20447;-93
2023/05/09 06:40:48;;;;;;;6.45;2.83;;;;;;;;;;10044223;23;20026;-91
2023/05/09 06:44:51;;;;;;;5.38;2.60;;;;;;;;;;10045528;23;20052;-89
2023/05/09 06:48:54;;;;;;;5.65;3.47;;;;;;;;;;10046034;23;20023;-91
2023/05/09 06:52:57;;;;;;;6.22;3.00;;;;;;;;;;10046507;23;20495;-93
2023/05/09 06:57:03;;;;;;;7.85;2.85;;;;;;;;;;10048677;23;20038;-90
2023/05/09 07:01:06;;;;;;;7.68;4.60;;;;;;;;;;10059524;23;20030;-92
2023/05/09 07:05:10;;;;;;;6.15;3.28;;;;;;;;;;10044059;23;20018;-92
2023/05/09 07:09:16;;;;;;;3.97;2.80;;;;;;;;;;10043835;23;20030;-92
2023/05/09 07:13:20;;;;;;;5.38;2.90;;;;;;;;;;10058627;23;20091;-90
2023/05/09 07:17:23;;;;;;;9.30;4.03;;;;;;;;;;10042307;23;20191;-93
2023/05/09 07:21:26;;;;;;;5.90;3.47;;;;;;;;;;10042895;23;20103;-90
2023/05/09 07:25:30;;;;;;;4.97;2.67;;;;;;;;;;10042722;23;20059;-90
2023/05/09 07:29:35;;;;;;;3.42;2.40;;;;;;;;;;10045243;23;20098;-93
2023/05/09 07:33:38;;;;;;;4.68;2.47;;;;;;;;;;10045177;23;20101;-93
2023/05/09 07:37:41;;;;;;;4.80;2.97;;;;;;;;;;10045432;23;20090;-92
2023/05/09 07:41:44;;;;;;;8.85;4.57;;;;;;;;;;10045334;23;20026;-90
2023/05/09 07:45:48;;;;;;;7.60;3.60;;;;;;;;;;10044982;23;20022;-91
2023/05/09 07:49:51;;;;;;;7.95;3.83;;;;;;;;;;10045293;23;20660;-91
2023/05/09 07:53:55;;;;;;;3.92;2.50;;;;;;;;;;10044501;23;20089;-91
2023/05/09 07:58:00;;;;;;;4.32;2.30;;;;;;;;;;10044777;23;20018;-89
2023/05/09 08:02:05;;;;;;;6.78;2.60;;;;;;;;;;10044552;23;20421;-91
2023/05/09 08:06:09;;;;;;;3.70;2.20;;;;;;;;;;10045716;23;20113;-91
2023/05/09 08:10:14;;;;;;;4.68;2.63;;;;;;;;;;10044152;23;20384;-91
2023/05/09 08:14:17;;;;;;;6.80;2.45;;;;;;;;;;10060063;23;20046;-92
2023/05/09 08:18:22;;;;;;;5.07;2.30;;;;;;;;;;10043609;23;20097;-94
2023/05/09 08:22:25;;;;;;;3.63;1.80;;;;;;;;;;10042748;23;20086;-92
2023/05/09 08:26:28;;;;;;;6.30;2.15;;;;;;;;;;10043825;23;20025;-95
2023/05/09 08:30:31;;;;;;;6.32;3.35;;;;;;;;;;10042996;23;20098;-92
2023/05/09 08:34:35;;;;;;;8.75;4.47;;;;;;;;;;10047106;23;20097;-93
2023/05/09 08:38:46;;;;;;;8.40;5.40;;;;;;;;;;10072647;23;20098;-95
2023/05/09 08:42:52;;;;;;;8.25;2.90;;;;;;;;;;10045885;23;20030;-94
2023/05/09 08:47:00;;;;;;;4.10;2.80;;;;;;;;;;10041715;23;20066;-93
2023/05/09 08:51:07;;;;;;;6.80;3.55;;;;;;;;;;10026055;23;20022;-94
2023/05/09 08:55:11;;;;;;;6.25;4.00;;;;;;;;;;10066223;23;20704;-94
2023/05/09 08:59:15;;;;;;;4.20;2.28;;;;;;;;;;10052495;23;20026;-92
2023/05/09 09:03:20;;;;;;;7.32;3.40;;;;;;;;;;10046159;23;20011;-94
2023/05/09 09:07:27;;;;;;;7.78;3.72;;;;;;;;;;10096902;23;19999;-90
2023/05/09 09:11:34;;;;;;;7.35;2.40;;;;;;;;;;10099882;23;20101;-95
2023/05/09 09:15:38;;;;;;;3.03;2.20;;;;;;;;;;10029603;23;20114;-92
2023/05/09 09:19:44;;;;;;;3.97;2.22;;;;;;;;;;10046883;23;20019;-92
2023/05/09 09:23:50;;;;;;;8.90;2.80;;;;;;;;;;10059032;23;20026;-92
2023/05/09 09:27:53;;;;;;;5.15;2.70;;;;;;;;;;10051459;23;20470;-94
2023/05/09 09:31:56;;;;;;;5.60;2.38;;;;;;;;;;10044090;23;20026;-94
2023/05/09 09:35:59;;;;;;;5.60;2.55;;;;;;;;;;10044688;23;20098;-92
2023/05/09 09:40:04;;;;;;;6.68;3.65;;;;;;;;;;10044066;23;20451;-92
2023/05/09 09:44:08;;;;;;;10.52;8.20;;;;;;;;;;10042036;23;20027;-91
2023/05/09 09:48:14;;;;;;;3.03;1.92;;;;;;;;;;10019735;23;20075;-96
2023/05/09 09:52:25;;;;;;;2.80;2.00;;;;;;;;;;10043734;23;20030;-94
2023/05/09 09:56:40;;;;;;;5.82;2.97;;;;;;;;;;10046246;23;20022;-93
2023/05/09 10:00:44;;;;;;;5.28;2.65;;;;;;;;;;10066107;23;20030;-94
2023/05/09 10:04:48;;;;;;;28.48;13.48;;;;;;;;;;10051618;23;20045;-93
2023/05/09 10:08:53;;;;;;;13.95;6.15;;;;;;;;;;9978193;23;20046;-93
2023/05/09 10:13:02;;;;;;;16.33;9.32;;;;;;;;;;10051875;23;20041;-93
2023/05/09 10:17:06;;;;;;;6.25;2.90;;;;;;;;;;10063373;23;20077;-92
2023/05/09 10:21:14;;;;;;;6.93;4.40;;;;;;;;;;10057801;23;20495;-92
2023/05/09 10:25:21;;;;;;;101.88;41.13;;;;;;;;;;10067968;23;20018;-93
2023/05/09 10:29:28;;;;;;;15.98;6.97;;;;;;;;;;10029016;23;20031;-91
2023/05/09 10:33:38;;;;;;;7.63;3.25;;;;;;;;;;10069756;23;20030;-96
2023/05/09 10:37:56;;;;;;;14.75;7.60;;;;;;;;;;10058911;23;20022;-93
2023/05/09 10:42:12;;;;;;;65.10;32.42;;;;;;;;;;10075689;23;20042;-92
2023/05/09 10:46:18;;;;;;;9.80;3.72;;;;;;;;;;10073028;23;20018;-93
2023/05/09 10:50:22;;;;;;;17.98;5.95;;;;;;;;;;10056735;23;20015;-93
2023/05/09 10:54:32;;;;;;;2.42;2.10;;;;;;;;;;10045889;23;20022;-92
2023/05/09 10:58:39;;;;;;;17.38;9.20;;;;;;;;;;10048010;23;20023;-92
2023/05/09 11:03:09;;;;;;;5.95;3.08;;;;;;;;;;10047353;23;20085;-91
2023/05/09 11:07:24;;;;;;;4.75;2.97;;;;;;;;;;10019627;23;20097;-92
2023/05/09 11:11:27;;;;;;;24.05;7.50;;;;;;;;;;10058204;23;20026;-92
2023/05/09 11:15:30;;;;;;;31.17;10.52;;;;;;;;;;10070409;23;20085;-92
2023/05/09 11:19:37;;;;;;;12.35;4.78;;;;;;;;;;10088538;23;20049;-93
2023/05/09 11:23:41;;;;;;;6.55;3.22;;;;;;;;;;10106873;23;20465;-93
2023/05/09 11:27:46;;;;;;;25.17;13.25;;;;;;;;;;10093369;23;20094;-92
2023/05/09 11:32:07;;;;;;;8.20;3.88;;;;;;;;;;10073232;23;20030;-90
2023/05/09 11:36:19;;;;;;;18.60;7.25;;;;;;;;;;10102380;23;20513;-90
2023/05/09 11:40:23;;;;;;;29.80;9.18;;;;;;;;;;10115186;23;20153;-94
2023/05/09 11:44:27;;;;;;;22.10;7.45;;;;;;;;;;10104716;23;20033;-91
2023/05/09 11:48:30;;;;;;;10.20;3.28;;;;;;;;;;10073483;23;20069;-91
2023/05/09 11:52:40;;;;;;;27.75;7.32;;;;;;;;;;10102977;23;20018;-91
2023/05/09 11:56:44;;;;;;;14.68;4.35;;;;;;;;;;10118097;23;20018;-90
2023/05/09 12:00:47;;;;;;;17.58;6.03;;;;;;;;;;10103000;23;20057;-93
2023/05/09 12:04:50;;;;;;;6.60;2.47;;;;;;;;;;10100710;23;20055;-93
2023/05/09 12:08:58;;;;;;;13.90;4.03;;;;;;;;;;10102994;23;20025;-93
2023/05/09 12:13:04;;;;;;;17.60;7.45;;;;;;;;;;10123779;23;20033;-93
2023/05/09 12:17:07;;;;;;;10.07;4.55;;;;;;;;;;10122595;23;20030;-93
2023/05/09 12:21:14;;;;;;;5.78;2.17;;;;;;;;;;10117692;23;20022;-92
2023/05/09 12:25:19;;;;;;;13.07;3.60;;;;;;;;;;10122893;23;20457;-91
2023/05/09 12:29:22;;;;;;;14.95;5.60;;;;;;;;;;10107380;23;20026;-93
2023/05/09 12:33:26;;;;;;;10.13;5.30;;;;;;;;;;10090317;23;20022;-92
2023/05/09 12:37:32;;;;;;;10.13;4.40;;;;;;;;;;10091285;23;20038;-93
2023/05/09 12:41:43;;;;;;;5.45;3.20;;;;;;;;;;10108962;23;20477;-90
2023/05/09 12:45:54;;;;;;;7.38;2.47;;;;;;;;;;10108706;23;20029;-93
2023/05/09 12:49:59;;;;;;;5.65;2.60;;;;;;;;;;10114221;23;20394;-94
2023/05/09 12:54:05;;;;;;;5.82;3.00;;;;;;;;;;10099990;23;20033;-91
2023/05/09 12:58:15;;;;;;;9.48;3.95;;;;;;;;;;10090481;23;20050;-92
2023/05/09 13:02:19;;;;;;;9.05;4.30;;;;;;;;;;10117177;23;20022;-91
2023/05/09 13:06:23;;;;;;;17.13;9.45;;;;;;;;;;10090355;23;20026;-92
2023/05/09 13:10:27;;;;;;;28.48;9.45;;;;;;;;;;10103729;23;20407;-91
2023/05/09 13:14:32;;;;;;;3.58;2.05;;;;;;;;;;10095217;23;20465;-91
2023/05/09 13:18:35;;;;;;;5.10;2.72;;;;;;;;;;10093179;23;20041;-91
2023/05/09 13:22:38;;;;;;;17.02;9.77;;;;;;;;;;10091224;23;20605;-94
2023/05/09 13:26:41;;;;;;;12.88;7.93;;;;;;;;;;10089984;23;20073;-93
2023/05/09 13:30:46;;;;;;;11.90;3.47;;;;;;;;;;10090336;23;20022;-92
2023/05/09 13:34:52;;;;;;;7.35;3.58;;;;;;;;;;10094545;23;20027;-93
2023/05/09 13:38:56;;;;;;;3.60;2.30;;;;;;;;;;10127719;23;20018;-92
2023/05/09 13:42:59;;;;;;;15.77;7.05;;;;;;;;;;10129660;23;20026;-90
2023/05/09 13:47:06;;;;;;;3.92;2.60;;;;;;;;;;10121260;23;20022;-89
2023/05/09 13:51:09;;;;;;;5.72;2.80;;;;;;;;;;10132659;23;20022;-91
2023/05/09 13:55:12;;;;;;;5.70;2.10;;;;;;;;;;10092772;23;20041;-91
2023/05/09 13:59:15;;;;;;;4.40;2.75;;;;;;;;;;10090363;23;20033;-90
2023/05/09 14:03:24;;;;;;;4.95;2.35;;;;;;;;;;10089505;23;20022;-92
2023/05/09 14:07:27;;;;;;;4.20;2.50;;;;;;;;;;10106640;23;20018;-91
2023/05/09 14:11:30;;;;;;;3.45;2.10;;;;;;;;;;10091506;23;20097;-92
2023/05/09 14:15:34;;;;;;;3.95;2.25;;;;;;;;;;10094417;23;20026;-94
2023/05/09 14:19:39;;;;;;;3.75;2.00;;;;;;;;;;10098786;23;20027;-92
2023/05/09 14:23:42;;;;;;;21.50;9.13;;;;;;;;;;10102736;23;20018;-91
2023/05/09 14:27:45;;;;;;;8.07;3.47;;;;;;;;;;10094928;23;20045;-92
2023/05/09 14:31:48;;;;;;;5.75;2.15;;;;;;;;;;10105981;23;20027;-91
2023/05/09 14:35:52;;;;;;;4.13;2.30;;;;;;;;;;10102286;23;20050;-92
2023/05/09 14:39:55;;;;;;;3.90;1.90;;;;;;;;;;10099813;23;20018;-93
2023/05/09 14:43:59;;;;;;;8.45;2.80;;;;;;;;;;10096039;23;20073;-91
2023/05/09 14:48:05;;;;;;;7.20;1.85;;;;;;;;;;10097701;23;20022;-92
2023/05/09 14:52:09;;;;;;;3.63;2.10;;;;;;;;;;10115175;23;20046;-93
2023/05/09 14:56:12;;;;;;;8.75;4.95;;;;;;;;;;10070265;23;20049;-90
2023/05/09 15:00:16;;;;;;;4.32;2.42;;;;;;;;;;10098013;23;20042;-90
2023/05/09 15:04:19;;;;;;;3.95;2.45;;;;;;;;;;10097444;23;20387;-93
2023/05/09 15:08:25;;;;;;;6.75;3.03;;;;;;;;;;10102711;23;20026;-91
2023/05/09 15:12:27;;;;;;;3.45;2.08;;;;;;;;;;10079861;23;20073;-91
2023/05/09 15:16:30;;;;;;;6.90;2.50;;;;;;;;;;10102701;23;20027;-92
2023/05/09 15:20:34;;;;;;;7.13;2.20;;;;;;;;;;10098138;23;20022;-90
2023/05/09 15:24:41;;;;;;;3.53;2.15;;;;;;;;;;10076693;23;20022;-92
2023/05/09 15:28:44;;;;;;;3.88;2.10;;;;;;;;;;10119502;23;20022;-91
2023/05/09 15:32:47;;;;;;;4.80;2.35;;;;;;;;;;10081679;23;20034;-92
2023/05/09 15:36:52;;;;;;;3.63;2.20;;;;;;;;;;10105480;23;20022;-91
2023/05/09 15:40:58;;;;;;;4.20;2.50;;;;;;;;;;10104640;23;20093;-91
2023/05/09 15:45:02;;;;;;;7.15;3.63;;;;;;;;;;10121307;23;20391;-91
2023/05/09 15:49:05;;;;;;;5.30;2.30;;;;;;;;;;10104914;23;20050;-93
2023/05/09 15:53:08;;;;;;;5.38;2.50;;;;;;;;;;10104598;23;20043;-90
2023/05/09 15:57:13;;;;;;;4.40;2.40;;;;;;;;;;10075816;23;20036;-91
2023/05/09 16:01:16;;;;;;;6.97;4.55;;;;;;;;;;10113981;23;20142;-90
2023/05/09 16:05:22;;;;;;;4.30;2.35;;;;;;;;;;10101486;23;20023;-94
2023/05/09 16:09:28;;;;;;;3.67;2.40;;;;;;;;;;10104182;23;20022;-91
2023/05/09 16:13:33;;;;;;;3.80;2.35;;;;;;;;;;10118553;23;20026;-91
2023/05/09 16:17:37;;;;;;;4.13;2.58;;;;;;;;;;10123006;23;20026;-91
2023/05/09 16:21:40;;;;;;;4.43;2.20;;;;;;;;;;10113470;23;20022;-91
2023/05/09 16:25:48;;;;;;;9.60;5.43;;;;;;;;;;10108448;23;20026;-93
2023/05/09 16:29:53;;;;;;;62.13;20.70;;;;;;;;;;10116128;23;20049;-91
2023/05/09 16:34:02;;;;;;;8.68;2.88;;;;;;;;;;10117560;23;20074;-91
2023/05/09 16:38:05;;;;;;;4.25;2.00;;;;;;;;;;10106286;23;20359;-91
2023/05/09 16:42:08;;;;;;;6.43;2.30;;;;;;;;;;10083251;23;20041;-90
2023/05/09 16:46:14;;;;;;;8.45;3.67;;;;;;;;;;10099902;23;20018;-90
2023/05/09 16:50:17;;;;;;;9.43;4.15;;;;;;;;;;10097377;23;20085;-91
2023/05/09 16:54:22;;;;;;;3.72;2.33;;;;;;;;;;10099465;23;20033;-92
2023/05/09 16:58:36;;;;;;;34.00;12.07;;;;;;;;;;10100637;23;20070;-91
2023/05/09 17:02:42;;;;;;;8.52;2.50;;;;;;;;;;10115477;23;20681;-91
2023/05/09 17:06:47;;;;;;;6.07;3.10;;;;;;;;;;10116306;23;20033;-91
2023/05/09 17:10:50;;;;;;;6.38;2.72;;;;;;;;;;10070838;23;20026;-91
2023/05/09 17:14:55;;;;;;;5.50;2.85;;;;;;;;;;10098078;23;20027;-91
2023/05/09 17:19:00;;;;;;;8.52;3.45;;;;;;;;;;10094324;23;20054;-92
2023/05/09 17:23:17;;;;;;;8.63;4.63;;;;;;;;;;10108111;23;20022;-91
2023/05/09 17:27:35;;;;;;;6.55;3.08;;;;;;;;;;10091511;23;20109;-92
2023/05/09 17:31:38;;;;;;;5.88;2.75;;;;;;;;;;10086580;23;20030;-91
2023/05/09 17:35:50;;;;;;;14.18;6.93;;;;;;;;;;10086202;23;20033;-91
2023/05/09 17:40:04;;;;;;;13.55;5.82;;;;;;;;;;10098744;23;20067;-91
2023/05/09 17:44:07;;;;;;;9.57;2.90;;;;;;;;;;10101720;23;20029;-92
2023/05/09 17:48:10;;;;;;;12.52;5.63;;;;;;;;;;10082205;23;20022;-91
2023/05/09 17:52:16;;;;;;;22.23;12.10;;;;;;;;;;10093174;23;20022;-92
2023/05/09 17:56:25;;;;;;;13.07;5.78;;;;;;;;;;10113830;23;20038;-92
2023/05/09 18:00:29;;;;;;;11.05;4.47;;;;;;;;;;10114721;23;20111;-91
2023/05/09 18:04:33;;;;;;;14.68;5.70;;;;;;;;;;10086004;23;20098;-90
2023/05/09 18:08:37;;;;;;;10.68;5.40;;;;;;;;;;10085350;23;20166;-90
2023/05/09 18:12:41;;;;;;;9.93;5.20;;;;;;;;;;10085623;23;20022;-89
2023/05/09 18:16:44;;;;;;;18.48;6.18;;;;;;;;;;10085796;23;20080;-90
2023/05/09 18:20:49;;;;;;;46.08;12.18;;;;;;;;;;10083121;23;20033;-90
2023/05/09 18:24:58;;;;;;;37.55;12.30;;;;;;;;;;10097418;23;20018;-90
2023/05/09 18:29:01;;;;;;;41.58;17.90;;;;;;;;;;10084863;23;20041;-90
2023/05/09 18:33:04;;;;;;;80.20;28.10;;;;;;;;;;10116368;23;20023;-91
2023/05/09 18:37:07;;;;;;;14.77;6.95;;;;;;;;;;10120910;23;20121;-91
2023/05/09 18:41:14;;;;;;;8.93;5.10;;;;;;;;;;10133808;23;20002;-91
2023/05/09 18:45:21;;;;;;;8.50;4.95;;;;;;;;;;10152846;23;20087;-91
2023/05/09 18:49:26;;;;;;;6.63;3.80;;;;;;;;;;10068619;23;20026;-91
2023/05/09 18:53:29;;;;;;;7.50;3.70;;;;;;;;;;10091891;23;20070;-91
2023/05/09 18:57:43;;;;;;;12.43;6.80;;;;;;;;;;10089832;23;20049;-91
2023/05/09 19:06:41;;;;;;;8.82;4.18;;;;;;;;;;10087832;23;20394;-91
2023/05/09 19:10:44;;;;;;;8.07;4.28;;;;;;;;;;10090065;23;20030;-91
2023/05/09 19:14:50;;;;;;;8.93;4.68;;;;;;;;;;10091208;23;20022;-90
2023/05/09 19:18:58;;;;;;;7.18;4.32;;;;;;;;;;10092242;23;20034;-91
2023/05/09 19:23:03;;;;;;;25.05;15.45;;;;;;;;;;10090001;23;20034;-90
2023/05/09 19:27:06;;;;;;;31.02;12.48;;;;;;;;;;10065727;23;20036;-90
2023/05/09 19:31:12;;;;;;;16.42;7.55;;;;;;;;;;10092153;23;20360;-91
2023/05/09 19:35:35;;;;;;;23.25;12.48;;;;;;;;;;10066362;23;20025;-92
2023/05/09 19:39:45;;;;;;;13.20;6.95;;;;;;;;;;10089633;23;20022;-90
2023/05/09 19:43:50;;;;;;;10.60;5.82;;;;;;;;;;10087922;23;20022;-90
2023/05/09 19:47:55;;;;;;;12.00;6.03;;;;;;;;;;10091893;23;20436;-90
2023/05/09 19:52:00;;;;;;;80.35;39.35;;;;;;;;;;10107292;23;20026;-90
2023/05/09 19:56:06;;;;;;;11.63;6.57;;;;;;;;;;10041594;23;20065;-89
2023/05/09 20:00:11;;;;;;;11.43;6.18;;;;;;;;;;10107434;23;20042;-90
2023/05/09 20:04:24;;;;;;;9.50;5.00;;;;;;;;;;10092073;23;20334;-91
2023/05/09 20:08:30;;;;;;;10.88;5.40;;;;;;;;;;10089330;23;20473;-90
2023/05/09 20:12:33;;;;;;;8.05;4.82;;;;;;;;;;10089608;23;20023;-90
2023/05/09 20:16:36;;;;;;;8.65;4.82;;;;;;;;;;10090319;23;20038;-90
2023/05/09 20:20:43;;;;;;;11.02;6.15;;;;;;;;;;10089119;23;20033;-90
2023/05/09 20:24:47;;;;;;;10.07;4.72;;;;;;;;;;10106465;23;20026;-90
2023/05/09 20:28:53;;;;;;;8.57;4.35;;;;;;;;;;10091708;23;20022;-90
2023/05/09 20:32:59;;;;;;;9.27;5.50;;;;;;;;;;10066184;23;20513;-90
2023/05/09 20:37:05;;;;;;;14.32;5.32;;;;;;;;;;10091806;23;20018;-90
2023/05/09 20:41:08;;;;;;;11.02;5.57;;;;;;;;;;10107608;23;20045;-89
2023/05/09 20:45:16;;;;;;;8.30;5.15;;;;;;;;;;10091389;23;20029;-90
2023/05/09 20:49:20;;;;;;;8.73;5.07;;;;;;;;;;10091543;23;20019;-90
2023/05/09 20:53:29;;;;;;;12.70;5.85;;;;;;;;;;10091824;23;20065;-90
2023/05/09 20:57:31;;;;;;;8.30;5.05;;;;;;;;;;10107530;23;20069;-90
2023/05/09 21:01:35;;;;;;;8.68;5.15;;;;;;;;;;10091703;23;20073;-90
2023/05/09 21:05:38;;;;;;;8.38;4.40;;;;;;;;;;10091354;23;20018;-90
2023/05/09 21:09:42;;;;;;;9.70;5.32;;;;;;;;;;10091378;23;20027;-90
2023/05/09 21:13:45;;;;;;;16.40;6.80;;;;;;;;;;10090887;23;20523;-90
2023/05/09 21:17:48;;;;;;;14.00;5.07;;;;;;;;;;10091208;23;20053;-90
2023/05/09 21:21:51;;;;;;;9.93;4.70;;;;;;;;;;10091270;23;20026;-90
2023/05/09 21:25:56;;;;;;;10.02;4.85;;;;;;;;;;10090677;23;20442;-90
2023/05/09 21:30:00;;;;;;;6.53;4.68;;;;;;;;;;10090810;23;20022;-90
2023/05/09 21:34:08;;;;;;;10.50;4.47;;;;;;;;;;10090968;23;20022;-90
2023/05/09 21:38:11;;;;;;;9.35;4.50;;;;;;;;;;10107211;23;20347;-90
2023/05/09 21:42:16;;;;;;;9.02;4.65;;;;;;;;;;10091077;23;20019;-90
2023/05/09 21:46:19;;;;;;;8.90;4.85;;;;;;;;;;10090687;23;20022;-90
2023/05/09 21:50:22;;;;;;;14.65;6.22;;;;;;;;;;10090069;23;20405;-90
2023/05/09 21:54:25;;;;;;;7.95;4.45;;;;;;;;;;10090942;23;20019;-90
2023/05/09 21:58:29;;;;;;;6.50;4.18;;;;;;;;;;10090937;23;20042;-89
2023/05/09 22:02:32;;;;;;;8.27;4.20;;;;;;;;;;10090848;23;20022;-90
2023/05/09 22:06:37;;;;;;;9.75;4.57;;;;;;;;;;10090619;23;20073;-89
2023/05/09 22:10:40;;;;;;;12.23;4.75;;;;;;;;;;10090968;23;20033;-90
2023/05/09 22:14:45;;;;;;;10.65;4.75;;;;;;;;;;10090835;23;20415;-90
2023/05/09 22:18:48;;;;;;;8.82;4.00;;;;;;;;;;10090857;23;20018;-90
2023/05/09 22:22:51;;;;;;;9.02;4.65;;;;;;;;;;10091114;23;20391;-90
2023/05/09 22:26:54;;;;;;;10.75;4.15;;;;;;;;;;10090788;23;20019;-90
2023/05/09 22:30:58;;;;;;;10.98;4.60;;;;;;;;;;10090904;23;20025;-90
2023/05/09 22:35:01;;;;;;;13.30;4.60;;;;;;;;;;10090660;23;20022;-90
2023/05/09 22:39:04;;;;;;;10.75;4.35;;;;;;;;;;10093010;23;20018;-89
2023/05/09 22:43:09;;;;;;;5.97;3.70;;;;;;;;;;10093857;23;20447;-90
2023/05/09 22:47:13;;;;;;;7.55;4.38;;;;;;;;;;10093818;23;20022;-90
2023/05/09 22:51:16;;;;;;;12.02;4.10;;;;;;;;;;10093609;23;20069;-90
2023/05/09 22:55:19;;;;;;;9.20;4.47;;;;;;;;;;10093629;23;20023;-90
2023/05/09 22:59:22;;;;;;;10.05;4.22;;;;;;;;;;10093310;23;20069;-90
2023/05/09 23:03:26;;;;;;;8.38;4.45;;;;;;;;;;10093293;23;20029;-90
2023/05/09 23:07:30;;;;;;;9.82;4.25;;;;;;;;;;10092931;23;20027;-90
2023/05/09 23:11:32;;;;;;;7.80;4.30;;;;;;;;;;10093336;23;20018;-91
2023/05/09 23:15:35;;;;;;;8.82;4.00;;;;;;;;;;10062559;23;20026;-89
2023/05/09 23:19:40;;;;;;;8.63;4.15;;;;;;;;;;10073649;23;20038;-90
2023/05/09 23:23:42;;;;;;;9.10;4.47;;;;;;;;;;10080663;23;20030;-89
2023/05/09 23:27:45;;;;;;;10.10;4.50;;;;;;;;;;10093298;23;20003;-90
2023/05/09 23:31:48;;;;;;;7.55;4.43;;;;;;;;;;10067040;23;20048;-90
2023/05/09 23:35:53;;;;;;;10.70;4.55;;;;;;;;;;10046292;23;20352;-90
2023/05/09 23:39:56;;;;;;;8.15;4.25;;;;;;;;;;10045072;23;20019;-89
2023/05/09 23:44:00;;;;;;;7.32;3.83;;;;;;;;;;10045650;23;20353;-90
2023/05/09 23:48:03;;;;;;;8.70;4.55;;;;;;;;;;10043805;23;20097;-90
2023/05/09 23:52:08;;;;;;;9.07;4.30;;;;;;;;;;10044676;23;20022;-89
2023/05/09 23:56:11;;;;;;;13.07;4.90;;;;;;;;;;10044652;23;20018;-90
